sensor_id;sensor_type;location;lat;lon;timestamp;P1;durP1;ratioP1;P2;durP2;ratioP2
75303;SDS011;64042;50.916;6.988;2022-11-23T00:01:53;6.03;;;3.57;;
75303;SDS011;64042;50.916;6.988;2022-11-23T00:04:18;7.13;;;3.75;;
75303;SDS011;64042;50.916;6.988;2022-11-23T00:06:44;7.65;;;5.10;;
75303;SDS011;64042;50.916;6.988;2022-11-23T00:09:10;6.10;;;3.03;;
75303;SDS011;64042;50.916;6.988;2022-11-23T00:11:35;6.57;;;3.88;;
75303;SDS011;64042;50.916;6.988;2022-11-23T00:14:01;7.20;;;3.83;;
75303;SDS011;64042;50.916;6.988;2022-11-23T00:16:27;6.68;;;3.88;;
75303;SDS011;64042;50.916;6.988;2022-11-23T00:18:54;6.75;;;3.67;;
75303;SDS011;64042;50.916;6.988;2022-11-23T00:21:20;6.90;;;3.60;;
75303;SDS011;64042;50.916;6.988;2022-11-23T00:23:46;8.15;;;4.57;;
75303;SDS011;64042;50.916;6.988;2022-11-23T00:26:12;6.70;;;3.85;;
75303;SDS011;64042;50.916;6.988;2022-11-23T00:28:37;6.70;;;3.42;;
75303;SDS011;64042;50.916;6.988;2022-11-23T00:31:04;6.22;;;3.20;;
75303;SDS011;64042;50.916;6.988;2022-11-23T00:33:33;8.40;;;3.40;;
75303;SDS011;64042;50.916;6.988;2022-11-23T00:38:25;6.50;;;3.58;;
75303;SDS011;64042;50.916;6.988;2022-11-23T00:40:56;6.72;;;3.15;;
75303;SDS011;64042;50.916;6.988;2022-11-23T00:43:22;6.47;;;3.80;;
75303;SDS011;64042;50.916;6.988;2022-11-23T00:45:47;6.37;;;3.77;;
75303;SDS011;64042;50.916;6.988;2022-11-23T00:48:14;6.13;;;3.80;;
75303;SDS011;64042;50.916;6.988;2022-11-23T00:53:11;6.55;;;3.50;;
75303;SDS011;64042;50.916;6.988;2022-11-23T00:55:37;6.43;;;3.47;;
75303;SDS011;64042;50.916;6.988;2022-11-23T00:58:02;5.70;;;3.30;;
75303;SDS011;64042;50.916;6.988;2022-11-23T01:00:27;6.15;;;2.80;;
75303;SDS011;64042;50.916;6.988;2022-11-23T01:02:53;4.90;;;2.70;;
75303;SDS011;64042;50.916;6.988;2022-11-23T01:05:18;5.93;;;3.37;;
75303;SDS011;64042;50.916;6.988;2022-11-23T01:07:43;6.00;;;3.43;;
75303;SDS011;64042;50.916;6.988;2022-11-23T01:10:09;7.10;;;3.55;;
75303;SDS011;64042;50.916;6.988;2022-11-23T01:12:34;5.60;;;3.30;;
75303;SDS011;64042;50.916;6.988;2022-11-23T01:14:59;5.10;;;3.60;;
75303;SDS011;64042;50.916;6.988;2022-11-23T01:17:24;6.10;;;3.13;;
75303;SDS011;64042;50.916;6.988;2022-11-23T01:19:50;4.90;;;2.75;;
75303;SDS011;64042;50.916;6.988;2022-11-23T01:22:15;4.85;;;2.67;;
75303;SDS011;64042;50.916;6.988;2022-11-23T01:24:40;5.03;;;2.55;;
75303;SDS011;64042;50.916;6.988;2022-11-23T01:27:06;5.50;;;3.10;;
75303;SDS011;64042;50.916;6.988;2022-11-23T01:29:31;6.07;;;3.13;;
75303;SDS011;64042;50.916;6.988;2022-11-23T01:31:56;5.80;;;3.50;;
75303;SDS011;64042;50.916;6.988;2022-11-23T01:34:22;5.72;;;2.95;;
75303;SDS011;64042;50.916;6.988;2022-11-23T01:36:47;3.80;;;2.27;;
75303;SDS011;64042;50.916;6.988;2022-11-23T01:39:12;5.70;;;3.10;;
75303;SDS011;64042;50.916;6.988;2022-11-23T01:41:39;5.63;;;3.03;;
75303;SDS011;64042;50.916;6.988;2022-11-23T01:46:58;4.65;;;2.60;;
75303;SDS011;64042;50.916;6.988;2022-11-23T01:49:24;5.13;;;3.42;;
75303;SDS011;64042;50.916;6.988;2022-11-23T01:51:52;4.22;;;2.60;;
75303;SDS011;64042;50.916;6.988;2022-11-23T01:54:20;4.97;;;2.63;;
75303;SDS011;64042;50.916;6.988;2022-11-23T01:56:51;4.72;;;2.60;;
75303;SDS011;64042;50.916;6.988;2022-11-23T01:59:19;5.22;;;3.28;;
75303;SDS011;64042;50.916;6.988;2022-11-23T02:01:45;5.45;;;2.83;;
75303;SDS011;64042;50.916;6.988;2022-11-23T02:04:13;4.50;;;3.65;;
75303;SDS011;64042;50.916;6.988;2022-11-23T02:06:41;4.85;;;2.70;;
75303;SDS011;64042;50.916;6.988;2022-11-23T02:09:09;4.30;;;2.83;;
75303;SDS011;64042;50.916;6.988;2022-11-23T02:11:35;4.30;;;2.88;;
75303;SDS011;64042;50.916;6.988;2022-11-23T02:14:00;3.43;;;2.33;;
75303;SDS011;64042;50.916;6.988;2022-11-23T02:16:25;5.20;;;2.97;;
75303;SDS011;64042;50.916;6.988;2022-11-23T02:18:50;4.10;;;3.00;;
75303;SDS011;64042;50.916;6.988;2022-11-23T02:21:16;4.20;;;2.25;;
75303;SDS011;64042;50.916;6.988;2022-11-23T02:24:02;4.60;;;3.10;;
75303;SDS011;64042;50.916;6.988;2022-11-23T02:26:32;3.47;;;2.38;;
75303;SDS011;64042;50.916;6.988;2022-11-23T02:29:06;5.10;;;2.40;;
75303;SDS011;64042;50.916;6.988;2022-11-23T02:31:33;4.32;;;2.95;;
75303;SDS011;64042;50.916;6.988;2022-11-23T02:33:58;4.35;;;2.63;;
75303;SDS011;64042;50.916;6.988;2022-11-23T02:36:29;4.20;;;2.92;;
75303;SDS011;64042;50.916;6.988;2022-11-23T02:38:58;4.28;;;2.30;;
75303;SDS011;64042;50.916;6.988;2022-11-23T02:41:26;5.00;;;2.92;;
75303;SDS011;64042;50.916;6.988;2022-11-23T02:43:51;4.03;;;2.33;;
75303;SDS011;64042;50.916;6.988;2022-11-23T02:46:19;3.70;;;2.97;;
75303;SDS011;64042;50.916;6.988;2022-11-23T02:48:44;5.75;;;2.92;;
75303;SDS011;64042;50.916;6.988;2022-11-23T02:51:09;4.43;;;2.83;;
75303;SDS011;64042;50.916;6.988;2022-11-23T02:53:34;4.77;;;2.80;;
75303;SDS011;64042;50.916;6.988;2022-11-23T02:56:00;4.13;;;2.10;;
75303;SDS011;64042;50.916;6.988;2022-11-23T02:58:25;4.37;;;2.43;;
75303;SDS011;64042;50.916;6.988;2022-11-23T03:00:50;3.93;;;2.53;;
75303;SDS011;64042;50.916;6.988;2022-11-23T03:03:15;5.33;;;2.40;;
75303;SDS011;64042;50.916;6.988;2022-11-23T03:05:41;4.60;;;2.83;;
75303;SDS011;64042;50.916;6.988;2022-11-23T03:08:06;3.30;;;2.23;;
75303;SDS011;64042;50.916;6.988;2022-11-23T03:10:31;2.75;;;2.10;;
75303;SDS011;64042;50.916;6.988;2022-11-23T03:12:57;3.78;;;2.20;;
75303;SDS011;64042;50.916;6.988;2022-11-23T03:15:22;4.28;;;2.22;;
75303;SDS011;64042;50.916;6.988;2022-11-23T03:17:48;4.60;;;2.38;;
75303;SDS011;64042;50.916;6.988;2022-11-23T03:20:13;4.47;;;2.78;;
75303;SDS011;64042;50.916;6.988;2022-11-23T03:22:39;4.65;;;2.40;;
75303;SDS011;64042;50.916;6.988;2022-11-23T03:25:04;3.92;;;2.78;;
75303;SDS011;64042;50.916;6.988;2022-11-23T03:27:30;5.88;;;2.85;;
75303;SDS011;64042;50.916;6.988;2022-11-23T03:29:57;3.38;;;2.00;;
75303;SDS011;64042;50.916;6.988;2022-11-23T03:32:23;5.22;;;2.22;;
75303;SDS011;64042;50.916;6.988;2022-11-23T03:34:48;3.50;;;1.67;;
75303;SDS011;64042;50.916;6.988;2022-11-23T03:37:13;3.13;;;1.80;;
75303;SDS011;64042;50.916;6.988;2022-11-23T03:39:38;4.37;;;2.40;;
75303;SDS011;64042;50.916;6.988;2022-11-23T03:42:04;4.10;;;2.10;;
75303;SDS011;64042;50.916;6.988;2022-11-23T03:44:29;4.63;;;2.33;;
75303;SDS011;64042;50.916;6.988;2022-11-23T03:46:54;3.60;;;1.97;;
75303;SDS011;64042;50.916;6.988;2022-11-23T03:49:19;2.65;;;1.80;;
75303;SDS011;64042;50.916;6.988;2022-11-23T03:51:45;4.77;;;2.40;;
75303;SDS011;64042;50.916;6.988;2022-11-23T03:54:10;6.37;;;2.20;;
75303;SDS011;64042;50.916;6.988;2022-11-23T03:56:35;3.40;;;2.00;;
75303;SDS011;64042;50.916;6.988;2022-11-23T03:59:01;3.60;;;1.97;;
75303;SDS011;64042;50.916;6.988;2022-11-23T04:01:26;3.47;;;2.23;;
75303;SDS011;64042;50.916;6.988;2022-11-23T04:03:51;5.47;;;1.88;;
75303;SDS011;64042;50.916;6.988;2022-11-23T04:06:16;3.10;;;2.20;;
75303;SDS011;64042;50.916;6.988;2022-11-23T04:08:42;4.45;;;2.22;;
75303;SDS011;64042;50.916;6.988;2022-11-23T04:11:07;3.53;;;2.80;;
75303;SDS011;64042;50.916;6.988;2022-11-23T04:13:34;4.53;;;2.80;;
75303;SDS011;64042;50.916;6.988;2022-11-23T04:15:59;4.05;;;2.28;;
75303;SDS011;64042;50.916;6.988;2022-11-23T04:18:24;2.93;;;1.90;;
75303;SDS011;64042;50.916;6.988;2022-11-23T04:20:49;2.40;;;1.50;;
75303;SDS011;64042;50.916;6.988;2022-11-23T04:23:15;3.63;;;1.90;;
75303;SDS011;64042;50.916;6.988;2022-11-23T04:25:40;3.22;;;2.00;;
75303;SDS011;64042;50.916;6.988;2022-11-23T04:28:05;3.65;;;2.05;;
75303;SDS011;64042;50.916;6.988;2022-11-23T04:30:31;4.97;;;2.77;;
75303;SDS011;64042;50.916;6.988;2022-11-23T04:32:56;3.37;;;2.57;;
75303;SDS011;64042;50.916;6.988;2022-11-23T04:35:21;3.43;;;2.37;;
75303;SDS011;64042;50.916;6.988;2022-11-23T04:37:46;4.57;;;2.53;;
75303;SDS011;64042;50.916;6.988;2022-11-23T04:40:12;2.90;;;2.40;;
75303;SDS011;64042;50.916;6.988;2022-11-23T04:42:38;2.75;;;2.10;;
75303;SDS011;64042;50.916;6.988;2022-11-23T04:45:03;3.17;;;1.90;;
75303;SDS011;64042;50.916;6.988;2022-11-23T04:47:28;2.60;;;1.92;;
75303;SDS011;64042;50.916;6.988;2022-11-23T04:49:54;3.30;;;1.93;;
75303;SDS011;64042;50.916;6.988;2022-11-23T04:52:19;2.97;;;1.70;;
75303;SDS011;64042;50.916;6.988;2022-11-23T04:54:44;3.00;;;2.03;;
75303;SDS011;64042;50.916;6.988;2022-11-23T04:57:09;2.10;;;1.80;;
75303;SDS011;64042;50.916;6.988;2022-11-23T04:59:35;3.97;;;2.30;;
75303;SDS011;64042;50.916;6.988;2022-11-23T05:02:00;3.07;;;2.27;;
75303;SDS011;64042;50.916;6.988;2022-11-23T05:04:25;3.92;;;2.00;;
75303;SDS011;64042;50.916;6.988;2022-11-23T05:06:51;5.45;;;2.85;;
75303;SDS011;64042;50.916;6.988;2022-11-23T05:09:16;3.60;;;3.00;;
75303;SDS011;64042;50.916;6.988;2022-11-23T05:11:41;2.75;;;1.80;;
75303;SDS011;64042;50.916;6.988;2022-11-23T05:14:07;2.63;;;2.28;;
75303;SDS011;64042;50.916;6.988;2022-11-23T05:16:32;3.03;;;2.73;;
75303;SDS011;64042;50.916;6.988;2022-11-23T05:18:57;3.38;;;1.83;;
75303;SDS011;64042;50.916;6.988;2022-11-23T05:21:23;2.08;;;1.85;;
75303;SDS011;64042;50.916;6.988;2022-11-23T05:23:48;2.73;;;1.90;;
75303;SDS011;64042;50.916;6.988;2022-11-23T05:26:13;3.22;;;1.92;;
75303;SDS011;64042;50.916;6.988;2022-11-23T05:28:39;2.00;;;1.80;;
75303;SDS011;64042;50.916;6.988;2022-11-23T05:31:04;2.53;;;1.50;;
75303;SDS011;64042;50.916;6.988;2022-11-23T05:33:29;3.05;;;2.25;;
75303;SDS011;64042;50.916;6.988;2022-11-23T05:35:55;2.75;;;1.63;;
75303;SDS011;64042;50.916;6.988;2022-11-23T05:38:20;1.98;;;1.50;;
75303;SDS011;64042;50.916;6.988;2022-11-23T05:40:45;3.83;;;1.90;;
75303;SDS011;64042;50.916;6.988;2022-11-23T05:43:10;2.97;;;1.57;;
75303;SDS011;64042;50.916;6.988;2022-11-23T05:45:36;3.08;;;2.45;;
75303;SDS011;64042;50.916;6.988;2022-11-23T05:48:01;2.53;;;1.48;;
75303;SDS011;64042;50.916;6.988;2022-11-23T05:50:28;3.65;;;2.10;;
75303;SDS011;64042;50.916;6.988;2022-11-23T05:52:54;2.30;;;1.42;;
75303;SDS011;64042;50.916;6.988;2022-11-23T05:55:21;2.92;;;1.83;;
75303;SDS011;64042;50.916;6.988;2022-11-23T05:57:46;2.40;;;1.40;;
75303;SDS011;64042;50.916;6.988;2022-11-23T06:00:11;2.83;;;1.97;;
75303;SDS011;64042;50.916;6.988;2022-11-23T06:02:37;2.25;;;2.05;;
75303;SDS011;64042;50.916;6.988;2022-11-23T06:05:02;2.45;;;1.63;;
75303;SDS011;64042;50.916;6.988;2022-11-23T06:07:30;3.00;;;2.10;;
75303;SDS011;64042;50.916;6.988;2022-11-23T06:09:56;1.85;;;1.55;;
75303;SDS011;64042;50.916;6.988;2022-11-23T06:12:21;3.20;;;1.67;;
75303;SDS011;64042;50.916;6.988;2022-11-23T06:14:46;2.50;;;1.80;;
75303;SDS011;64042;50.916;6.988;2022-11-23T06:17:12;2.20;;;1.63;;
75303;SDS011;64042;50.916;6.988;2022-11-23T06:19:37;3.47;;;1.58;;
75303;SDS011;64042;50.916;6.988;2022-11-23T06:22:02;3.13;;;1.70;;
75303;SDS011;64042;50.916;6.988;2022-11-23T06:24:27;2.17;;;1.60;;
75303;SDS011;64042;50.916;6.988;2022-11-23T06:26:53;2.73;;;1.73;;
75303;SDS011;64042;50.916;6.988;2022-11-23T06:29:18;2.88;;;1.77;;
75303;SDS011;64042;50.916;6.988;2022-11-23T06:31:44;4.32;;;1.70;;
75303;SDS011;64042;50.916;6.988;2022-11-23T06:34:10;3.10;;;2.15;;
75303;SDS011;64042;50.916;6.988;2022-11-23T06:36:35;1.85;;;1.60;;
75303;SDS011;64042;50.916;6.988;2022-11-23T06:39:00;2.93;;;1.90;;
75303;SDS011;64042;50.916;6.988;2022-11-23T06:41:26;2.17;;;1.85;;
75303;SDS011;64042;50.916;6.988;2022-11-23T06:43:51;1.87;;;1.43;;
75303;SDS011;64042;50.916;6.988;2022-11-23T06:46:16;3.10;;;1.80;;
75303;SDS011;64042;50.916;6.988;2022-11-23T06:48:42;2.00;;;1.50;;
75303;SDS011;64042;50.916;6.988;2022-11-23T06:51:08;2.65;;;1.60;;
75303;SDS011;64042;50.916;6.988;2022-11-23T06:53:34;3.05;;;1.55;;
75303;SDS011;64042;50.916;6.988;2022-11-23T06:55:59;2.83;;;1.93;;
75303;SDS011;64042;50.916;6.988;2022-11-23T06:58:25;2.58;;;1.52;;
75303;SDS011;64042;50.916;6.988;2022-11-23T07:00:51;2.03;;;1.40;;
75303;SDS011;64042;50.916;6.988;2022-11-23T07:03:20;2.65;;;2.45;;
75303;SDS011;64042;50.916;6.988;2022-11-23T07:05:46;3.22;;;2.08;;
75303;SDS011;64042;50.916;6.988;2022-11-23T07:08:12;1.98;;;1.75;;
75303;SDS011;64042;50.916;6.988;2022-11-23T07:10:37;2.53;;;2.08;;
75303;SDS011;64042;50.916;6.988;2022-11-23T07:13:05;2.20;;;1.47;;
75303;SDS011;64042;50.916;6.988;2022-11-23T07:15:31;2.15;;;1.52;;
75303;SDS011;64042;50.916;6.988;2022-11-23T07:17:56;3.00;;;1.35;;
75303;SDS011;64042;50.916;6.988;2022-11-23T07:20:22;1.88;;;1.75;;
75303;SDS011;64042;50.916;6.988;2022-11-23T07:22:47;2.40;;;2.15;;
75303;SDS011;64042;50.916;6.988;2022-11-23T07:25:12;2.67;;;1.60;;
75303;SDS011;64042;50.916;6.988;2022-11-23T07:27:43;3.55;;;1.95;;
75303;SDS011;64042;50.916;6.988;2022-11-23T07:30:08;2.95;;;1.70;;
75303;SDS011;64042;50.916;6.988;2022-11-23T07:32:34;2.28;;;1.40;;
75303;SDS011;64042;50.916;6.988;2022-11-23T07:34:59;2.22;;;1.50;;
75303;SDS011;64042;50.916;6.988;2022-11-23T07:37:24;2.73;;;1.50;;
75303;SDS011;64042;50.916;6.988;2022-11-23T07:39:50;2.15;;;1.25;;
75303;SDS011;64042;50.916;6.988;2022-11-23T07:42:16;1.45;;;1.20;;
75303;SDS011;64042;50.916;6.988;2022-11-23T07:44:42;1.90;;;1.48;;
75303;SDS011;64042;50.916;6.988;2022-11-23T07:47:07;2.30;;;1.95;;
75303;SDS011;64042;50.916;6.988;2022-11-23T07:49:33;2.13;;;1.57;;
75303;SDS011;64042;50.916;6.988;2022-11-23T07:51:58;1.97;;;1.50;;
75303;SDS011;64042;50.916;6.988;2022-11-23T07:54:23;2.13;;;1.50;;
75303;SDS011;64042;50.916;6.988;2022-11-23T07:56:49;2.20;;;1.90;;
75303;SDS011;64042;50.916;6.988;2022-11-23T07:59:14;2.03;;;1.40;;
75303;SDS011;64042;50.916;6.988;2022-11-23T08:01:39;2.10;;;1.47;;
75303;SDS011;64042;50.916;6.988;2022-11-23T08:04:04;2.70;;;1.90;;
75303;SDS011;64042;50.916;6.988;2022-11-23T08:06:30;2.40;;;1.73;;
75303;SDS011;64042;50.916;6.988;2022-11-23T08:08:55;2.17;;;1.23;;
75303;SDS011;64042;50.916;6.988;2022-11-23T08:11:20;3.38;;;1.58;;
75303;SDS011;64042;50.916;6.988;2022-11-23T08:13:46;2.50;;;1.58;;
75303;SDS011;64042;50.916;6.988;2022-11-23T08:16:11;2.38;;;2.15;;
75303;SDS011;64042;50.916;6.988;2022-11-23T08:18:37;2.30;;;2.10;;
75303;SDS011;64042;50.916;6.988;2022-11-23T08:21:02;2.27;;;1.70;;
75303;SDS011;64042;50.916;6.988;2022-11-23T08:23:28;3.33;;;2.30;;
75303;SDS011;64042;50.916;6.988;2022-11-23T08:25:53;2.17;;;1.65;;
75303;SDS011;64042;50.916;6.988;2022-11-23T08:28:19;2.63;;;1.70;;
75303;SDS011;64042;50.916;6.988;2022-11-23T08:30:44;2.03;;;1.35;;
75303;SDS011;64042;50.916;6.988;2022-11-23T08:33:09;2.38;;;1.67;;
75303;SDS011;64042;50.916;6.988;2022-11-23T08:35:36;2.00;;;1.83;;
75303;SDS011;64042;50.916;6.988;2022-11-23T08:38:02;3.13;;;2.17;;
75303;SDS011;64042;50.916;6.988;2022-11-23T08:40:28;2.72;;;1.95;;
75303;SDS011;64042;50.916;6.988;2022-11-23T08:42:53;3.05;;;2.28;;
75303;SDS011;64042;50.916;6.988;2022-11-23T08:45:19;2.60;;;1.77;;
75303;SDS011;64042;50.916;6.988;2022-11-23T08:47:45;2.72;;;1.83;;
75303;SDS011;64042;50.916;6.988;2022-11-23T08:50:10;1.97;;;1.13;;
75303;SDS011;64042;50.916;6.988;2022-11-23T08:52:35;1.77;;;1.50;;
75303;SDS011;64042;50.916;6.988;2022-11-23T08:55:00;2.20;;;1.55;;
75303;SDS011;64042;50.916;6.988;2022-11-23T08:57:26;2.37;;;1.33;;
75303;SDS011;64042;50.916;6.988;2022-11-23T08:59:52;2.20;;;1.65;;
75303;SDS011;64042;50.916;6.988;2022-11-23T09:02:17;2.53;;;2.33;;
75303;SDS011;64042;50.916;6.988;2022-11-23T09:04:42;1.88;;;1.55;;
75303;SDS011;64042;50.916;6.988;2022-11-23T09:07:07;2.33;;;1.97;;
75303;SDS011;64042;50.916;6.988;2022-11-23T09:09:33;1.90;;;1.43;;
75303;SDS011;64042;50.916;6.988;2022-11-23T09:11:58;2.33;;;1.30;;
75303;SDS011;64042;50.916;6.988;2022-11-23T09:14:23;2.13;;;1.60;;
75303;SDS011;64042;50.916;6.988;2022-11-23T09:16:49;2.10;;;1.30;;
75303;SDS011;64042;50.916;6.988;2022-11-23T09:19:14;1.53;;;1.13;;
75303;SDS011;64042;50.916;6.988;2022-11-23T09:21:39;2.08;;;1.65;;
75303;SDS011;64042;50.916;6.988;2022-11-23T09:24:06;2.00;;;1.63;;
75303;SDS011;64042;50.916;6.988;2022-11-23T09:26:33;1.35;;;1.10;;
75303;SDS011;64042;50.916;6.988;2022-11-23T09:28:59;2.28;;;1.48;;
75303;SDS011;64042;50.916;6.988;2022-11-23T09:31:24;2.40;;;2.20;;
75303;SDS011;64042;50.916;6.988;2022-11-23T09:33:52;1.63;;;1.17;;
75303;SDS011;64042;50.916;6.988;2022-11-23T09:36:18;2.90;;;2.00;;
75303;SDS011;64042;50.916;6.988;2022-11-23T09:38:43;2.20;;;1.17;;
75303;SDS011;64042;50.916;6.988;2022-11-23T09:41:18;1.87;;;1.57;;
75303;SDS011;64042;50.916;6.988;2022-11-23T09:44:01;1.30;;;0.95;;
75303;SDS011;64042;50.916;6.988;2022-11-23T09:49:11;1.98;;;1.60;;
75303;SDS011;64042;50.916;6.988;2022-11-23T09:51:38;1.63;;;1.17;;
75303;SDS011;64042;50.916;6.988;2022-11-23T09:54:08;2.58;;;1.75;;
75303;SDS011;64042;50.916;6.988;2022-11-23T09:56:35;4.18;;;1.30;;
75303;SDS011;64042;50.916;6.988;2022-11-23T09:59:02;2.63;;;1.60;;
75303;SDS011;64042;50.916;6.988;2022-11-23T10:01:34;3.97;;;1.30;;
75303;SDS011;64042;50.916;6.988;2022-11-23T10:03:59;2.67;;;1.40;;
75303;SDS011;64042;50.916;6.988;2022-11-23T10:06:26;3.95;;;1.85;;
75303;SDS011;64042;50.916;6.988;2022-11-23T10:12:10;3.70;;;1.10;;
75303;SDS011;64042;50.916;6.988;2022-11-23T10:17:57;2.65;;;1.30;;
75303;SDS011;64042;50.916;6.988;2022-11-23T10:25:55;2.67;;;1.52;;
75303;SDS011;64042;50.916;6.988;2022-11-23T10:28:21;2.78;;;1.33;;
75303;SDS011;64042;50.916;6.988;2022-11-23T10:30:54;3.85;;;2.00;;
75303;SDS011;64042;50.916;6.988;2022-11-23T10:33:31;2.58;;;1.67;;
75303;SDS011;64042;50.916;6.988;2022-11-23T10:36:02;1.90;;;0.82;;
75303;SDS011;64042;50.916;6.988;2022-11-23T10:38:27;3.50;;;1.67;;
75303;SDS011;64042;50.916;6.988;2022-11-23T10:41:00;3.22;;;1.33;;
75303;SDS011;64042;50.916;6.988;2022-11-23T10:43:30;1.90;;;1.08;;
75303;SDS011;64042;50.916;6.988;2022-11-23T10:48:46;3.42;;;1.70;;
75303;SDS011;64042;50.916;6.988;2022-11-23T10:51:29;3.92;;;1.52;;
75303;SDS011;64042;50.916;6.988;2022-11-23T10:54:00;2.63;;;1.10;;
75303;SDS011;64042;50.916;6.988;2022-11-23T10:56:28;3.15;;;1.48;;
75303;SDS011;64042;50.916;6.988;2022-11-23T10:58:53;2.72;;;1.73;;
75303;SDS011;64042;50.916;6.988;2022-11-23T11:01:20;3.08;;;1.70;;
75303;SDS011;64042;50.916;6.988;2022-11-23T11:03:48;4.25;;;1.73;;
75303;SDS011;64042;50.916;6.988;2022-11-23T11:06:20;2.97;;;1.30;;
75303;SDS011;64042;50.916;6.988;2022-11-23T11:08:50;4.30;;;3.03;;
75303;SDS011;64042;50.916;6.988;2022-11-23T11:11:23;3.63;;;1.63;;
75303;SDS011;64042;50.916;6.988;2022-11-23T11:14:13;3.72;;;1.77;;
75303;SDS011;64042;50.916;6.988;2022-11-23T11:16:48;3.40;;;2.22;;
75303;SDS011;64042;50.916;6.988;2022-11-23T11:21:56;3.95;;;1.67;;
75303;SDS011;64042;50.916;6.988;2022-11-23T11:24:35;4.28;;;1.77;;
75303;SDS011;64042;50.916;6.988;2022-11-23T11:27:03;2.42;;;1.27;;
75303;SDS011;64042;50.916;6.988;2022-11-23T11:32:11;3.78;;;1.75;;
75303;SDS011;64042;50.916;6.988;2022-11-23T11:37:17;3.78;;;1.40;;
75303;SDS011;64042;50.916;6.988;2022-11-23T11:39:57;3.42;;;1.30;;
75303;SDS011;64042;50.916;6.988;2022-11-23T11:42:47;3.35;;;1.50;;
75303;SDS011;64042;50.916;6.988;2022-11-23T11:45:17;3.85;;;1.60;;
75303;SDS011;64042;50.916;6.988;2022-11-23T11:48:02;3.22;;;1.58;;
75303;SDS011;64042;50.916;6.988;2022-11-23T11:50:35;5.28;;;1.80;;
75303;SDS011;64042;50.916;6.988;2022-11-23T11:53:05;4.22;;;2.78;;
75303;SDS011;64042;50.916;6.988;2022-11-23T11:58:25;4.60;;;2.25;;
75303;SDS011;64042;50.916;6.988;2022-11-23T12:01:06;5.00;;;1.70;;
75303;SDS011;64042;50.916;6.988;2022-11-23T12:03:43;4.40;;;1.60;;
75303;SDS011;64042;50.916;6.988;2022-11-23T12:06:20;4.90;;;3.03;;
75303;SDS011;64042;50.916;6.988;2022-11-23T12:11:24;4.00;;;1.85;;
75303;SDS011;64042;50.916;6.988;2022-11-23T12:13:49;2.67;;;1.83;;
75303;SDS011;64042;50.916;6.988;2022-11-23T12:16:27;4.32;;;1.50;;
75303;SDS011;64042;50.916;6.988;2022-11-23T12:26:59;4.97;;;2.38;;
75303;SDS011;64042;50.916;6.988;2022-11-23T12:35:12;4.55;;;1.73;;
75303;SDS011;64042;50.916;6.988;2022-11-23T12:38:11;4.60;;;1.52;;
75303;SDS011;64042;50.916;6.988;2022-11-23T12:41:00;4.10;;;1.45;;
75303;SDS011;64042;50.916;6.988;2022-11-23T12:43:31;4.32;;;1.30;;
75303;SDS011;64042;50.916;6.988;2022-11-23T12:58:54;4.65;;;1.33;;
75303;SDS011;64042;50.916;6.988;2022-11-23T13:09:51;4.72;;;2.00;;
75303;SDS011;64042;50.916;6.988;2022-11-23T13:22:59;3.10;;;1.02;;
75303;SDS011;64042;50.916;6.988;2022-11-23T13:25:26;4.07;;;1.63;;
75303;SDS011;64042;50.916;6.988;2022-11-23T13:27:54;4.43;;;1.67;;
75303;SDS011;64042;50.916;6.988;2022-11-23T13:32:53;2.78;;;1.25;;
75303;SDS011;64042;50.916;6.988;2022-11-23T13:43:00;3.63;;;1.42;;
75303;SDS011;64042;50.916;6.988;2022-11-23T13:45:38;4.45;;;1.90;;
75303;SDS011;64042;50.916;6.988;2022-11-23T13:50:32;3.72;;;1.40;;
75303;SDS011;64042;50.916;6.988;2022-11-23T13:52:58;4.25;;;1.50;;
75303;SDS011;64042;50.916;6.988;2022-11-23T13:55:36;1.92;;;1.10;;
75303;SDS011;64042;50.916;6.988;2022-11-23T13:58:36;2.60;;;1.27;;
75303;SDS011;64042;50.916;6.988;2022-11-23T14:00:59;4.07;;;1.27;;
75303;SDS011;64042;50.916;6.988;2022-11-23T14:09:10;4.25;;;1.27;;
75303;SDS011;64042;50.916;6.988;2022-11-23T14:11:49;4.15;;;1.80;;
75303;SDS011;64042;50.916;6.988;2022-11-23T14:14:19;3.00;;;1.23;;
75303;SDS011;64042;50.916;6.988;2022-11-23T14:17:13;2.95;;;1.40;;
75303;SDS011;64042;50.916;6.988;2022-11-23T14:22:54;4.07;;;1.40;;
75303;SDS011;64042;50.916;6.988;2022-11-23T14:25:33;3.75;;;1.20;;
75303;SDS011;64042;50.916;6.988;2022-11-23T14:31:13;4.78;;;1.65;;
75303;SDS011;64042;50.916;6.988;2022-11-23T14:42:13;7.18;;;2.45;;
75303;SDS011;64042;50.916;6.988;2022-11-23T14:44:40;6.03;;;2.90;;
75303;SDS011;64042;50.916;6.988;2022-11-23T14:47:07;7.18;;;3.25;;
75303;SDS011;64042;50.916;6.988;2022-11-23T14:49:34;9.40;;;3.25;;
75303;SDS011;64042;50.916;6.988;2022-11-23T14:52:00;7.00;;;2.75;;
75303;SDS011;64042;50.916;6.988;2022-11-23T14:59:24;7.28;;;2.65;;
75303;SDS011;64042;50.916;6.988;2022-11-23T15:02:02;8.20;;;3.40;;
75303;SDS011;64042;50.916;6.988;2022-11-23T15:04:30;11.02;;;3.95;;
75303;SDS011;64042;50.916;6.988;2022-11-23T15:07:20;6.68;;;2.85;;
75303;SDS011;64042;50.916;6.988;2022-11-23T15:09:53;7.85;;;3.08;;
75303;SDS011;64042;50.916;6.988;2022-11-23T15:12:39;8.73;;;3.15;;
75303;SDS011;64042;50.916;6.988;2022-11-23T15:15:20;8.13;;;2.75;;
75303;SDS011;64042;50.916;6.988;2022-11-23T15:17:54;7.07;;;2.83;;
75303;SDS011;64042;50.916;6.988;2022-11-23T15:20:21;8.02;;;3.03;;
75303;SDS011;64042;50.916;6.988;2022-11-23T15:22:48;7.07;;;2.65;;
75303;SDS011;64042;50.916;6.988;2022-11-23T15:25:14;8.53;;;3.17;;
75303;SDS011;64042;50.916;6.988;2022-11-23T15:27:42;6.82;;;2.50;;
75303;SDS011;64042;50.916;6.988;2022-11-23T15:30:15;6.55;;;2.70;;
75303;SDS011;64042;50.916;6.988;2022-11-23T15:32:57;9.30;;;3.38;;
75303;SDS011;64042;50.916;6.988;2022-11-23T15:35:33;8.55;;;2.53;;
75303;SDS011;64042;50.916;6.988;2022-11-23T15:38:01;6.25;;;2.63;;
75303;SDS011;64042;50.916;6.988;2022-11-23T15:40:31;8.00;;;2.88;;
75303;SDS011;64042;50.916;6.988;2022-11-23T15:42:57;9.32;;;3.03;;
75303;SDS011;64042;50.916;6.988;2022-11-23T15:48:20;6.90;;;2.53;;
75303;SDS011;64042;50.916;6.988;2022-11-23T15:50:50;6.70;;;2.30;;
75303;SDS011;64042;50.916;6.988;2022-11-23T15:53:16;7.40;;;2.85;;
75303;SDS011;64042;50.916;6.988;2022-11-23T15:55:42;9.90;;;2.53;;
75303;SDS011;64042;50.916;6.988;2022-11-23T15:58:07;7.53;;;2.40;;
75303;SDS011;64042;50.916;6.988;2022-11-23T16:00:34;8.25;;;2.55;;
75303;SDS011;64042;50.916;6.988;2022-11-23T16:06:07;7.50;;;3.22;;
75303;SDS011;64042;50.916;6.988;2022-11-23T16:08:35;5.65;;;1.83;;
75303;SDS011;64042;50.916;6.988;2022-11-23T16:11:01;4.55;;;2.00;;
75303;SDS011;64042;50.916;6.988;2022-11-23T16:13:34;7.40;;;2.80;;
75303;SDS011;64042;50.916;6.988;2022-11-23T16:16:00;5.43;;;2.47;;
75303;SDS011;64042;50.916;6.988;2022-11-23T16:18:29;4.65;;;1.80;;
75303;SDS011;64042;50.916;6.988;2022-11-23T16:20:57;6.30;;;2.13;;
75303;SDS011;64042;50.916;6.988;2022-11-23T16:23:44;6.00;;;2.00;;
75303;SDS011;64042;50.916;6.988;2022-11-23T16:26:12;6.13;;;2.33;;
75303;SDS011;64042;50.916;6.988;2022-11-23T16:28:53;6.63;;;2.45;;
75303;SDS011;64042;50.916;6.988;2022-11-23T16:31:26;4.60;;;2.50;;
75303;SDS011;64042;50.916;6.988;2022-11-23T16:33:55;6.32;;;3.33;;
75303;SDS011;64042;50.916;6.988;2022-11-23T16:36:20;5.03;;;2.23;;
75303;SDS011;64042;50.916;6.988;2022-11-23T16:38:46;5.03;;;2.17;;
75303;SDS011;64042;50.916;6.988;2022-11-23T16:41:11;5.30;;;1.70;;
75303;SDS011;64042;50.916;6.988;2022-11-23T16:43:36;6.00;;;2.20;;
75303;SDS011;64042;50.916;6.988;2022-11-23T16:46:01;5.70;;;2.57;;
75303;SDS011;64042;50.916;6.988;2022-11-23T16:50:53;4.32;;;2.00;;
75303;SDS011;64042;50.916;6.988;2022-11-23T16:53:19;4.88;;;1.65;;
75303;SDS011;64042;50.916;6.988;2022-11-23T16:55:46;6.22;;;2.55;;
75303;SDS011;64042;50.916;6.988;2022-11-23T16:58:13;5.03;;;1.75;;
75303;SDS011;64042;50.916;6.988;2022-11-23T17:00:39;6.82;;;2.42;;
75303;SDS011;64042;50.916;6.988;2022-11-23T17:03:04;4.15;;;1.70;;